createdAt,value
2018-12-03T00:01:13.949Z,23.30
2018-12-03T00:04:35.789Z,23.30
2018-12-03T00:07:33.525Z,23.30
2018-12-03T00:10:35.027Z,23.30
2018-12-03T00:13:32.656Z,23.30
2018-12-03T00:16:31.327Z,23.30
2018-12-03T00:19:27.752Z,23.30
2018-12-03T00:22:23.788Z,23.30
2018-12-03T00:25:21.691Z,23.30
2018-12-03T00:28:22.204Z,23.30
2018-12-03T00:31:21.835Z,23.30
2018-12-03T00:34:18.396Z,23.30
2018-12-03T00:37:14.941Z,23.30
2018-12-03T00:40:12.308Z,23.30
2018-12-03T00:43:08.651Z,23.30
2018-12-03T00:46:12.046Z,23.30
2018-12-03T00:49:07.375Z,23.30
2018-12-03T00:52:03.840Z,23.30
2018-12-03T00:55:03.058Z,23.30
2018-12-03T00:57:59.941Z,23.20
2018-12-03T01:00:56.260Z,23.20
2018-12-03T01:03:53.340Z,23.20
2018-12-03T01:06:49.808Z,23.20
2018-12-03T01:09:46.538Z,23.20
2018-12-03T01:12:43.423Z,23.30
2018-12-03T01:15:42.754Z,23.30
2018-12-03T01:18:40.609Z,23.20
2018-12-03T01:21:39.055Z,23.30
2018-12-03T01:24:35.265Z,23.20
2018-12-03T01:27:31.284Z,23.20
2018-12-03T01:30:29.371Z,23.20
2018-12-03T01:33:27.199Z,23.20
2018-12-03T01:36:26.157Z,23.20
2018-12-03T01:39:22.874Z,23.20
2018-12-03T01:42:19.206Z,23.20
2018-12-03T01:45:18.740Z,23.20
2018-12-03T01:48:14.918Z,23.20
2018-12-03T01:51:11.259Z,23.20
2018-12-03T01:54:07.864Z,23.30
2018-12-03T01:57:04.767Z,23.30
2018-12-03T02:00:01.252Z,23.30
2018-12-03T02:03:00.597Z,23.30
2018-12-03T02:05:57.266Z,23.30
2018-12-03T02:08:55.721Z,23.20
2018-12-03T02:11:54.642Z,23.30
2018-12-03T02:14:53.184Z,23.30
2018-12-03T02:17:53.090Z,23.30
2018-12-03T02:20:49.570Z,23.30
2018-12-03T02:23:45.946Z,23.30
2018-12-03T02:26:43.460Z,23.30
2018-12-03T02:29:39.668Z,23.30
2018-12-03T02:32:35.754Z,23.30
2018-12-03T02:35:32.108Z,23.30
2018-12-03T02:38:28.371Z,23.30
2018-12-03T02:41:25.181Z,23.40
2018-12-03T02:44:21.557Z,23.40
2018-12-03T02:47:17.930Z,23.40
2018-12-03T02:50:18.989Z,23.40
2018-12-03T02:53:15.372Z,23.40
2018-12-03T02:56:12.497Z,23.40
2018-12-03T02:59:09.182Z,23.40
2018-12-03T03:02:06.139Z,23.40
2018-12-03T03:05:02.584Z,23.40
2018-12-03T03:07:59.604Z,23.40
2018-12-03T03:10:57.939Z,23.50
2018-12-03T03:13:55.035Z,23.40
2018-12-03T03:16:51.710Z,23.50
2018-12-03T03:19:48.903Z,23.50
2018-12-03T03:22:45.158Z,23.50
2018-12-03T03:25:41.946Z,23.50
2018-12-03T03:28:38.527Z,23.50
2018-12-03T03:31:34.810Z,23.50
2018-12-03T03:34:31.235Z,23.50
2018-12-03T03:37:27.499Z,23.50
2018-12-03T03:40:27.135Z,23.50
2018-12-03T03:43:23.779Z,23.50
2018-12-03T03:46:20.179Z,23.60
2018-12-03T03:49:17.288Z,23.60
2018-12-03T03:52:16.448Z,23.60
2018-12-03T03:55:33.139Z,23.60
2018-12-03T03:58:30.335Z,23.60
2018-12-03T04:01:27.284Z,23.60
2018-12-03T04:04:24.323Z,23.60
2018-12-03T04:07:21.128Z,23.70
2018-12-03T04:10:18.799Z,23.70
2018-12-03T04:13:15.052Z,23.70
2018-12-03T04:16:18.081Z,23.70
2018-12-03T04:19:15.423Z,23.70
2018-12-03T04:22:11.560Z,23.70
2018-12-03T04:25:07.842Z,23.70
2018-12-03T04:28:04.010Z,23.80
2018-12-03T04:31:00.672Z,23.80
2018-12-03T04:33:57.096Z,23.80
2018-12-03T04:36:53.892Z,23.80
2018-12-03T04:39:52.337Z,23.70
2018-12-03T04:42:50.289Z,23.70
2018-12-03T04:45:47.053Z,23.70
2018-12-03T04:48:46.772Z,23.70
2018-12-03T04:51:43.680Z,23.70
2018-12-03T04:54:40.338Z,23.70
2018-12-03T04:57:36.991Z,23.70
2018-12-03T05:00:36.803Z,23.80
2018-12-03T05:03:55.675Z,23.70
2018-12-03T05:06:57.111Z,23.70
2018-12-03T05:09:54.667Z,23.70
2018-12-03T05:13:06.893Z,23.80
2018-12-03T05:39:22.820Z,24.10
2018-12-03T05:45:27.001Z,24.20
2018-12-03T05:48:33.497Z,24.20
2018-12-03T05:51:32.192Z,24.20
2018-12-03T05:54:40.850Z,24.20
2018-12-03T05:57:48.677Z,24.30
2018-12-03T06:04:12.272Z,24.30
2018-12-03T06:07:34.740Z,24.40
2018-12-03T06:17:50.365Z,24.30
2018-12-03T06:21:28.128Z,24.30
2018-12-03T06:24:30.415Z,24.30
2018-12-03T06:34:51.130Z,24.30
2018-12-03T06:38:05.350Z,24.30
2018-12-03T06:41:13.810Z,24.40
2018-12-03T06:54:17.559Z,24.30
2018-12-03T06:57:41.875Z,24.30
2018-12-03T07:00:52.450Z,24.30
2018-12-03T07:56:23.623Z,24.20
2018-12-03T07:59:29.613Z,24.30
2018-12-03T08:03:25.171Z,24.30
2018-12-03T08:09:43.022Z,24.30
2018-12-03T08:11:23.015Z,24.30
2018-12-03T08:12:45.682Z,24.30
2018-12-03T08:15:41.245Z,24.30
2018-12-03T08:22:07.407Z,24.30
2018-12-03T08:25:17.365Z,24.30
2018-12-03T08:28:20.256Z,24.30
2018-12-03T08:31:34.275Z,24.30
2018-12-03T08:34:45.393Z,24.40
2018-12-03T08:37:44.055Z,24.40
2018-12-03T08:57:44.264Z,24.40
2018-12-03T09:04:04.028Z,24.30
2018-12-03T09:07:02.603Z,24.30
2018-12-03T09:11:21.983Z,24.30
2018-12-03T09:23:36.603Z,24.30
